Big Bear Station Historical Data
Daily Summary for February 24, 2019 Units:  English    Metric   Both
Next Day »
Daily Weekly Monthly Yearly Custom
  High: Low: Average:
Temperature: 46.6 °F 15.4 °F 27.3 °F
Dew Point: 26.7 °F 13.2 °F 19.4 °F
Humidity: 91% 38% 75%
Wind Speed: 4.7mph 0.0mph 0.6mph
Wind Gust: -999.0mph - -
Wind- - WNW
Pressure: 23.55 in 23.44 in -
Precipitation: 0.43 in    
Historical Graphs
 
 
Tabular Data for February 24, 2019
Time Temperature Dew Point Pressure Wind Wind Speed Wind Gust Humidity Rainfall Rate (Hourly)
00:11 19.0 °F 16.8 °F 23.55 in Calm   -999.0 mph 91% 0.00 in
00:26 18.9 °F 16.7 °F 23.55 in Calm   -999.0 mph 91% 0.00 in
00:41 18.7 °F 16.5 °F 23.55 in Calm   -999.0 mph 91% 0.00 in
00:56 18.5 °F 15.8 °F 23.55 in Calm   -999.0 mph 89% 0.00 in
01:12 18.0 °F 15.3 °F 23.55 in Calm   -999.0 mph 89% 0.00 in
01:27 17.6 °F 14.9 °F 23.55 in Calm   -999.0 mph 89% 0.00 in
01:42 17.1 °F 14.4 °F 23.54 in Calm   -999.0 mph 89% 0.00 in
01:57 16.9 °F 14.2 °F 23.54 in Calm   -999.0 mph 89% 0.00 in
02:12 16.5 °F 14.1 °F 23.54 in Calm   -999.0 mph 90% 0.00 in
02:28 16.3 °F 13.9 °F 23.53 in Calm   -999.0 mph 90% 0.00 in
02:43 16.3 °F 14.1 °F 23.53 in Calm   -999.0 mph 91% 0.00 in
02:58 16.2 °F 14.0 °F 23.53 in Calm   -999.0 mph 91% 0.00 in
03:13 16.0 °F 13.8 °F 23.53 in Calm   -999.0 mph 91% 0.00 in
03:28 15.8 °F 13.6 °F 23.52 in Calm   -999.0 mph 91% 0.00 in
03:44 15.8 °F 13.6 °F 23.52 in Calm   -999.0 mph 91% 0.00 in
03:59 16.3 °F 13.9 °F 23.52 in Calm   -999.0 mph 90% 0.00 in
04:14 16.2 °F 13.8 °F 23.52 in Calm   -999.0 mph 90% 0.00 in
04:29 16.2 °F 14.0 °F 23.52 in Calm   -999.0 mph 91% 0.00 in
04:44 16.2 °F 13.8 °F 23.52 in Calm   -999.0 mph 90% 0.00 in
05:00 16.0 °F 13.6 °F 23.52 in Calm   -999.0 mph 90% 0.00 in
05:15 16.0 °F 13.6 °F 23.52 in Calm   -999.0 mph 90% 0.00 in
05:30 16.0 °F 13.6 °F 23.52 in Calm   -999.0 mph 90% 0.00 in
05:45 16.0 °F 13.8 °F 23.52 in Calm   -999.0 mph 91% 0.00 in
06:01 16.0 °F 13.8 °F 23.52 in Calm   -999.0 mph 91% 0.00 in
06:16 16.0 °F 13.8 °F 23.52 in Calm   -999.0 mph 91% 0.00 in
06:31 15.4 °F 13.2 °F 23.52 in Calm   -999.0 mph 91% 0.00 in
06:46 15.6 °F 13.4 °F 23.52 in Calm   -999.0 mph 91% 0.00 in
07:01 16.7 °F 14.3 °F 23.52 in Calm   -999.0 mph 90% 0.00 in
07:17 16.9 °F 14.5 °F 23.52 in Calm   -999.0 mph 90% 0.00 in
07:32 18.0 °F 15.6 °F 23.52 in Calm   -999.0 mph 90% 0.00 in
07:47 18.7 °F 16.0 °F 23.52 in Calm   -999.0 mph 89% 0.00 in
08:02 19.2 °F 16.5 °F 23.52 in Calm   -999.0 mph 89% 0.00 in
08:17 19.9 °F 16.9 °F 23.52 in Calm   -999.0 mph 88% 0.00 in
08:33 20.3 °F 17.3 °F 23.52 in Calm   -999.0 mph 88% 0.00 in
08:48 21.6 °F 18.1 °F 23.53 in Calm   -999.0 mph 86% 0.00 in
09:03 22.3 °F 18.2 °F 23.52 in Calm   -999.0 mph 84% 0.00 in
09:18 23.2 °F 17.7 °F 23.52 in Calm   -999.0 mph 79% 0.00 in
09:33 25.7 °F 18.9 °F 23.51 in Calm   -999.0 mph 75% 0.00 in
09:49 28.6 °F 20.7 °F 23.51 in Calm   -999.0 mph 72% 0.00 in
10:04 33.8 °F 21.4 °F 23.51 in NW 2.7 mph -999.0 mph 60% 0.00 in
10:19 38.7 °F 20.2 °F 23.51 in Calm   -999.0 mph 47% 0.00 in
10:34 43.3 °F 22.3 °F 23.51 in Calm   -999.0 mph 43% 0.00 in
10:49 45.1 °F 23.4 °F 23.51 in Calm   -999.0 mph 42% 0.00 in
11:05 46.0 °F 23.0 °F 23.51 in North 1.7 mph -999.0 mph 40% 0.00 in
11:20 45.7 °F 21.5 °F 23.50 in NW 2.7 mph -999.0 mph 38% 0.00 in
11:35 45.1 °F 22.8 °F 23.50 in NW 2.7 mph -999.0 mph 41% 0.00 in
11:51 45.9 °F 24.1 °F 23.49 in NNW 2.2 mph -999.0 mph 42% 0.00 in
12:06 45.7 °F 25.6 °F 23.48 in Calm   -999.0 mph 45% 0.00 in
12:21 46.6 °F 23.6 °F 23.48 in NW 1.7 mph -999.0 mph 40% 0.00 in
12:37 45.0 °F 26.0 °F 23.48 in NW 2.7 mph -999.0 mph 47% 0.00 in
12:52 45.0 °F 23.3 °F 23.47 in NNW 3.2 mph -999.0 mph 42% 0.00 in
13:08 43.7 °F 23.7 °F 23.47 in NNW 3.2 mph -999.0 mph 45% 0.00 in
13:23 44.8 °F 22.5 °F 23.46 in NW 3.2 mph -999.0 mph 41% 0.00 in
13:38 43.7 °F 22.7 °F 23.46 in NNE 3.2 mph -999.0 mph 43% 0.00 in
13:53 41.0 °F 24.7 °F 23.46 in NNW 2.2 mph -999.0 mph 52% 0.00 in
14:08 43.2 °F 25.3 °F 23.46 in NW 2.2 mph -999.0 mph 49% 0.00 in
14:24 41.7 °F 24.9 °F 23.45 in NW 3.2 mph -999.0 mph 51% 0.00 in
14:39 41.2 °F 25.4 °F 23.45 in NNW 2.7 mph -999.0 mph 53% 0.00 in
14:54 39.7 °F 26.5 °F 23.45 in NNW 2.7 mph -999.0 mph 59% 0.00 in
15:09 39.9 °F 26.7 °F 23.45 in NW 1.7 mph -999.0 mph 59% 0.00 in
15:25 39.2 °F 26.5 °F 23.45 in Calm   -999.0 mph 60% 0.00 in
15:40 37.8 °F 26.7 °F 23.44 in Calm   -999.0 mph 64% 0.00 in
15:55 37.4 °F 23.5 °F 23.44 in NW 3.2 mph -999.0 mph 57% 0.00 in
16:10 37.6 °F 23.3 °F 23.45 in NNE 3.7 mph -999.0 mph 56% 0.00 in
16:26 37.2 °F 23.8 °F 23.45 in NNW 1.7 mph -999.0 mph 58% 0.00 in
16:41 35.8 °F 24.0 °F 23.45 in WNW 4.7 mph -999.0 mph 62% 0.00 in
16:56 34.9 °F 23.6 °F 23.45 in North 2.2 mph -999.0 mph 63% 0.00 in
17:11 34.3 °F 23.0 °F 23.45 in Calm   -999.0 mph 63% 0.00 in
17:26 33.3 °F 23.5 °F 23.45 in Calm   -999.0 mph 67% 0.00 in
17:42 32.2 °F 21.0 °F 23.45 in Calm   -999.0 mph 63% 0.00 in
17:57 32.2 °F 21.4 °F 23.45 in Calm   -999.0 mph 64% 0.00 in
18:12 31.1 °F 22.5 °F 23.45 in Calm   -999.0 mph 70% 0.00 in
18:27 29.8 °F 22.5 °F 23.45 in Calm   -999.0 mph 74% 0.00 in
18:43 28.9 °F 22.0 °F 23.45 in Calm   -999.0 mph 75% 0.00 in
18:58 28.0 °F 21.7 °F 23.45 in Calm   -999.0 mph 77% 0.00 in
19:14 27.3 °F 22.5 °F 23.45 in Calm   -999.0 mph 82% 0.00 in
19:29 26.8 °F 21.5 °F 23.45 in Calm   -999.0 mph 80% 0.00 in
19:44 26.1 °F 21.4 °F 23.45 in Calm   -999.0 mph 82% 0.00 in
19:59 25.5 °F 21.3 °F 23.45 in Calm   -999.0 mph 84% 0.00 in
20:14 25.3 °F 21.4 °F 23.45 in Calm   -999.0 mph 85% 0.00 in
20:30 24.8 °F 21.2 °F 23.45 in Calm   -999.0 mph 86% 0.00 in
20:45 24.6 °F 21.0 °F 23.45 in Calm   -999.0 mph 86% 0.00 in
21:00 23.9 °F 20.6 °F 23.46 in Calm   -999.0 mph 87% 0.00 in
21:15 23.5 °F 20.2 °F 23.47 in Calm   -999.0 mph 87% 0.00 in
21:30 23.5 °F 20.2 °F 23.46 in Calm   -999.0 mph 87% 0.00 in
21:46 23.4 °F 20.4 °F 23.46 in Calm   -999.0 mph 88% 0.00 in
22:01 22.6 °F 19.6 °F 23.46 in Calm   -999.0 mph 88% 0.00 in
22:17 22.5 °F 19.7 °F 23.47 in Calm   -999.0 mph 89% 0.00 in
22:32 22.3 °F 19.8 °F 23.47 in Calm   -999.0 mph 90% 0.00 in
22:47 21.9 °F 19.4 °F 23.47 in Calm   -999.0 mph 90% 0.00 in
23:02 22.1 °F 19.6 °F 23.47 in Calm   -999.0 mph 90% 0.00 in
23:17 21.9 °F 19.4 °F 23.47 in Calm   -999.0 mph 90% 0.00 in
23:33 21.9 °F 19.4 °F 23.47 in Calm   -999.0 mph 90% 0.00 in
23:48 21.7 °F 19.2 °F 23.47 in Calm   -999.0 mph 90% 0.00 in
Big Bear CA Weather